sensor_id;sensor_type;location;lat;lon;timestamp;pressure;altitude;pressure_sealevel;temperature;humidity
7376;BME280;3728;42.266;24.944;2023-02-18T00:01:50;100279.53;;;7.54;50.22
7376;BME280;3728;42.266;24.944;2023-02-18T00:04:17;100275.91;;;7.65;49.55
7376;BME280;3728;42.266;24.944;2023-02-18T00:06:45;100275.63;;;7.77;49.99
7376;BME280;3728;42.266;24.944;2023-02-18T00:09:12;100279.25;;;7.91;49.10
7376;BME280;3728;42.266;24.944;2023-02-18T00:11:40;100275.88;;;7.75;50.62
7376;BME280;3728;42.266;24.944;2023-02-18T00:14:13;100272.22;;;7.71;49.65
7376;BME280;3728;42.266;24.944;2023-02-18T00:16:42;100274.84;;;7.61;50.63
7376;BME280;3728;42.266;24.944;2023-02-18T00:19:14;100268.84;;;7.76;49.37
7376;BME280;3728;42.266;24.944;2023-02-18T00:21:47;100271.97;;;7.83;49.15
7376;BME280;3728;42.266;24.944;2023-02-18T00:24:15;100274.31;;;7.74;49.52
7376;BME280;3728;42.266;24.944;2023-02-18T00:26:43;100277.72;;;7.70;50.45
7376;BME280;3728;42.266;24.944;2023-02-18T00:29:10;100269.38;;;7.68;49.50
7376;BME280;3728;42.266;24.944;2023-02-18T00:31:40;100268.34;;;7.43;50.42
7376;BME280;3728;42.266;24.944;2023-02-18T00:34:09;100260.25;;;7.30;51.24
7376;BME280;3728;42.266;24.944;2023-02-18T00:36:38;100253.19;;;7.30;51.10
7376;BME280;3728;42.266;24.944;2023-02-18T00:39:07;100249.03;;;7.24;51.00
7376;BME280;3728;42.266;24.944;2023-02-18T00:41:38;100238.88;;;7.28;50.78
7376;BME280;3728;42.266;24.944;2023-02-18T00:44:06;100235.22;;;7.29;50.96
7376;BME280;3728;42.266;24.944;2023-02-18T00:46:34;100231.06;;;7.43;51.06
7376;BME280;3728;42.266;24.944;2023-02-18T00:49:03;100221.94;;;7.30;50.97
7376;BME280;3728;42.266;24.944;2023-02-18T00:51:34;100223.50;;;7.16;51.51
7376;BME280;3728;42.266;24.944;2023-02-18T00:54:01;100213.84;;;7.12;52.58
7376;BME280;3728;42.266;24.944;2023-02-18T00:56:30;100215.41;;;6.87;52.41
7376;BME280;3728;42.266;24.944;2023-02-18T00:58:57;100212.28;;;7.01;52.32
7376;BME280;3728;42.266;24.944;2023-02-18T01:01:25;100208.91;;;7.15;51.34
7376;BME280;3728;42.266;24.944;2023-02-18T01:03:53;100206.50;;;6.78;51.93
7376;BME280;3728;42.266;24.944;2023-02-18T01:06:21;100199.50;;;6.84;52.85
7376;BME280;3728;42.266;24.944;2023-02-18T01:08:49;100192.19;;;6.76;53.02
7376;BME280;3728;42.266;24.944;2023-02-18T01:11:18;100194.03;;;6.85;52.75
7376;BME280;3728;42.266;24.944;2023-02-18T01:13:46;100190.13;;;6.83;53.86
7376;BME280;3728;42.266;24.944;2023-02-18T01:16:13;100185.94;;;6.72;54.34
7376;BME280;3728;42.266;24.944;2023-02-18T01:18:43;100180.50;;;6.83;53.47
7376;BME280;3728;42.266;24.944;2023-02-18T01:21:12;100181.28;;;6.84;53.21
7376;BME280;3728;42.266;24.944;2023-02-18T01:23:41;100188.59;;;6.87;54.17
7376;BME280;3728;42.266;24.944;2023-02-18T01:26:10;100192.47;;;6.74;53.62
7376;BME280;3728;42.266;24.944;2023-02-18T01:28:38;100184.63;;;6.64;54.53
7376;BME280;3728;42.266;24.944;2023-02-18T01:31:10;100187.53;;;6.78;54.02
7376;BME280;3728;42.266;24.944;2023-02-18T01:33:39;100188.59;;;6.87;53.46
7376;BME280;3728;42.266;24.944;2023-02-18T01:36:07;100179.19;;;6.76;53.63
7376;BME280;3728;42.266;24.944;2023-02-18T01:38:36;100181.22;;;6.54;53.67
7376;BME280;3728;42.266;24.944;2023-02-18T01:41:04;100178.38;;;6.60;54.74
7376;BME280;3728;42.266;24.944;2023-02-18T01:43:32;100177.59;;;6.65;54.32
7376;BME280;3728;42.266;24.944;2023-02-18T01:46:19;100190.13;;;6.73;53.93
7376;BME280;3728;42.266;24.944;2023-02-18T01:48:54;100184.13;;;6.67;53.10
7376;BME280;3728;42.266;24.944;2023-02-18T01:51:28;100177.88;;;6.78;53.33
7376;BME280;3728;42.266;24.944;2023-02-18T01:54:08;100179.94;;;6.71;53.13
7376;BME280;3728;42.266;24.944;2023-02-18T01:59:28;100166.09;;;6.41;53.85
7376;BME280;3728;42.266;24.944;2023-02-18T02:02:03;100160.63;;;6.37;53.61
7376;BME280;3728;42.266;24.944;2023-02-18T02:04:33;100151.97;;;6.11;54.20
7376;BME280;3728;42.266;24.944;2023-02-18T02:07:01;100155.81;;;6.04;55.49
7376;BME280;3728;42.266;24.944;2023-02-18T02:09:30;100149.28;;;5.96;55.58
7376;BME280;3728;42.266;24.944;2023-02-18T02:35:41;100154.03;;;6.09;54.21
7376;BME280;3728;42.266;24.944;2023-02-18T02:38:42;100165.69;;;6.02;55.80
7376;BME280;3728;42.266;24.944;2023-02-18T02:41:44;100163.84;;;5.92;55.88
7376;BME280;3728;42.266;24.944;2023-02-18T02:50:42;100164.94;;;6.06;55.84
7376;BME280;3728;42.266;24.944;2023-02-18T02:53:26;100163.22;;;6.32;54.96
7376;BME280;3728;42.266;24.944;2023-02-18T02:55:56;100170.19;;;6.27;54.96
7376;BME280;3728;42.266;24.944;2023-02-18T02:58:24;100163.41;;;6.15;55.41
7376;BME280;3728;42.266;24.944;2023-02-18T03:04:03;100161.59;;;6.16;55.30
7376;BME280;3728;42.266;24.944;2023-02-18T03:12:48;100153.00;;;6.15;55.80
7376;BME280;3728;42.266;24.944;2023-02-18T03:16:09;100155.91;;;6.19;55.34
7376;BME280;3728;42.266;24.944;2023-02-18T03:18:51;100149.41;;;6.27;55.44
7376;BME280;3728;42.266;24.944;2023-02-18T03:21:33;100153.59;;;5.76;56.06
7376;BME280;3728;42.266;24.944;2023-02-18T03:24:26;100161.84;;;5.26;58.45
7376;BME280;3728;42.266;24.944;2023-02-18T03:27:07;100157.88;;;5.18;58.77
7376;BME280;3728;42.266;24.944;2023-02-18T03:29:44;100152.97;;;4.85;60.91
7376;BME280;3728;42.266;24.944;2023-02-18T03:32:17;100158.19;;;4.63;62.52
7376;BME280;3728;42.266;24.944;2023-02-18T03:34:50;100153.16;;;4.52;63.66
7376;BME280;3728;42.266;24.944;2023-02-18T03:37:22;100159.22;;;4.36;65.42
7376;BME280;3728;42.266;24.944;2023-02-18T03:39:54;100174.66;;;4.52;65.87
7376;BME280;3728;42.266;24.944;2023-02-18T03:42:27;100174.56;;;4.69;65.56
7376;BME280;3728;42.266;24.944;2023-02-18T03:44:55;100172.56;;;4.76;65.31
7376;BME280;3728;42.266;24.944;2023-02-18T03:47:23;100176.41;;;4.68;65.63
7376;BME280;3728;42.266;24.944;2023-02-18T03:49:51;100177.25;;;4.52;65.83
7376;BME280;3728;42.266;24.944;2023-02-18T03:52:19;100178.41;;;4.61;66.46
7376;BME280;3728;42.266;24.944;2023-02-18T03:54:46;100161.47;;;4.54;66.21
7376;BME280;3728;42.266;24.944;2023-02-18T03:57:15;100170.47;;;4.46;66.40
7376;BME280;3728;42.266;24.944;2023-02-18T03:59:43;100158.81;;;4.49;66.51
7376;BME280;3728;42.266;24.944;2023-02-18T04:02:10;100167.13;;;4.51;65.64
7376;BME280;3728;42.266;24.944;2023-02-18T04:04:38;100167.47;;;4.59;65.27
7376;BME280;3728;42.266;24.944;2023-02-18T04:07:05;100179.84;;;4.52;65.64
7376;BME280;3728;42.266;24.944;2023-02-18T04:09:33;100183.78;;;4.55;65.81
7376;BME280;3728;42.266;24.944;2023-02-18T04:12:00;100175.09;;;4.66;65.38
7376;BME280;3728;42.266;24.944;2023-02-18T04:14:28;100176.25;;;4.80;64.93
7376;BME280;3728;42.266;24.944;2023-02-18T04:16:55;100171.72;;;4.92;64.48
7376;BME280;3728;42.266;24.944;2023-02-18T04:19:23;100169.56;;;5.16;62.93
7376;BME280;3728;42.266;24.944;2023-02-18T04:21:51;100173.44;;;5.50;60.03
7376;BME280;3728;42.266;24.944;2023-02-18T04:24:18;100174.53;;;5.59;60.04
7376;BME280;3728;42.266;24.944;2023-02-18T04:26:46;100169.63;;;5.68;60.34
7376;BME280;3728;42.266;24.944;2023-02-18T04:29:13;100171.22;;;5.69;58.81
7376;BME280;3728;42.266;24.944;2023-02-18T04:31:41;100179.59;;;5.81;58.44
7376;BME280;3728;42.266;24.944;2023-02-18T04:34:08;100179.59;;;5.81;58.32
7376;BME280;3728;42.266;24.944;2023-02-18T04:36:36;100190.16;;;6.06;58.21
7376;BME280;3728;42.266;24.944;2023-02-18T04:39:04;100183.47;;;6.25;56.44
7376;BME280;3728;42.266;24.944;2023-02-18T04:41:31;100185.09;;;6.46;56.28
7376;BME280;3728;42.266;24.944;2023-02-18T04:43:59;100184.88;;;6.58;55.48
7376;BME280;3728;42.266;24.944;2023-02-18T04:46:27;100181.75;;;6.61;55.85
7376;BME280;3728;42.266;24.944;2023-02-18T04:48:54;100179.97;;;6.66;55.04
7376;BME280;3728;42.266;24.944;2023-02-18T04:51:22;100179.94;;;6.56;56.12
7376;BME280;3728;42.266;24.944;2023-02-18T04:53:49;100187.69;;;6.41;56.06
7376;BME280;3728;42.266;24.944;2023-02-18T04:56:17;100183.53;;;6.40;55.63
7376;BME280;3728;42.266;24.944;2023-02-18T04:58:45;100181.47;;;6.42;55.94
7376;BME280;3728;42.266;24.944;2023-02-18T05:01:13;100188.53;;;6.67;55.06
7376;BME280;3728;42.266;24.944;2023-02-18T05:03:40;100193.25;;;6.75;54.49
7376;BME280;3728;42.266;24.944;2023-02-18T05:06:08;100187.50;;;6.68;54.92
7376;BME280;3728;42.266;24.944;2023-02-18T05:08:36;100184.94;;;7.03;54.20
7376;BME280;3728;42.266;24.944;2023-02-18T05:11:07;100180.78;;;7.02;53.45
7376;BME280;3728;42.266;24.944;2023-02-18T05:13:35;100171.66;;;7.00;53.41
7376;BME280;3728;42.266;24.944;2023-02-18T05:16:02;100172.94;;;6.72;54.32
7376;BME280;3728;42.266;24.944;2023-02-18T05:18:30;100181.47;;;6.57;54.74
7376;BME280;3728;42.266;24.944;2023-02-18T05:20:58;100179.09;;;6.36;56.04
7376;BME280;3728;42.266;24.944;2023-02-18T05:23:26;100179.31;;;6.19;57.73
7376;BME280;3728;42.266;24.944;2023-02-18T05:25:54;100187.38;;;6.22;57.94
7376;BME280;3728;42.266;24.944;2023-02-18T05:28:22;100188.94;;;6.24;58.77
7376;BME280;3728;42.266;24.944;2023-02-18T05:30:49;100195.19;;;6.28;57.67
7376;BME280;3728;42.266;24.944;2023-02-18T05:33:17;100189.25;;;6.37;58.18
7376;BME280;3728;42.266;24.944;2023-02-18T05:35:45;100191.31;;;6.35;58.38
7376;BME280;3728;42.266;24.944;2023-02-18T05:38:14;100188.97;;;6.39;57.89
7376;BME280;3728;42.266;24.944;2023-02-18T05:40:41;100193.66;;;6.37;58.46
7376;BME280;3728;42.266;24.944;2023-02-18T05:43:09;100197.31;;;6.41;58.78
7376;BME280;3728;42.266;24.944;2023-02-18T05:45:37;100197.84;;;6.38;59.27
7376;BME280;3728;42.266;24.944;2023-02-18T05:48:04;100193.16;;;6.45;59.22
7376;BME280;3728;42.266;24.944;2023-02-18T05:50:32;100191.88;;;6.47;58.42
7376;BME280;3728;42.266;24.944;2023-02-18T05:53:00;100194.44;;;6.37;59.02
7376;BME280;3728;42.266;24.944;2023-02-18T05:55:27;100196.28;;;6.47;59.43
7376;BME280;3728;42.266;24.944;2023-02-18T05:57:56;100204.91;;;6.62;59.89
7376;BME280;3728;42.266;24.944;2023-02-18T06:00:24;100196.88;;;6.69;59.51
7376;BME280;3728;42.266;24.944;2023-02-18T06:02:51;100204.16;;;6.72;58.86
7376;BME280;3728;42.266;24.944;2023-02-18T06:05:19;100197.94;;;6.73;59.66
7376;BME280;3728;42.266;24.944;2023-02-18T06:07:46;100210.41;;;6.76;59.38
7376;BME280;3728;42.266;24.944;2023-02-18T06:10:14;100205.22;;;6.71;61.09
7376;BME280;3728;42.266;24.944;2023-02-18T06:12:43;100202.59;;;6.76;59.33
7376;BME280;3728;42.266;24.944;2023-02-18T06:15:11;100206.25;;;6.75;58.59
7376;BME280;3728;42.266;24.944;2023-02-18T06:17:40;100203.16;;;6.78;59.38
7376;BME280;3728;42.266;24.944;2023-02-18T06:20:08;100198.72;;;6.88;58.98
7376;BME280;3728;42.266;24.944;2023-02-18T06:22:35;100202.63;;;6.91;58.80
7376;BME280;3728;42.266;24.944;2023-02-18T06:25:04;100200.31;;;7.10;59.58
7376;BME280;3728;42.266;24.944;2023-02-18T06:27:32;100198.22;;;7.22;57.73
7376;BME280;3728;42.266;24.944;2023-02-18T06:30:00;100201.63;;;7.27;57.26
7376;BME280;3728;42.266;24.944;2023-02-18T06:32:28;100196.66;;;7.31;56.98
7376;BME280;3728;42.266;24.944;2023-02-18T06:34:55;100187.28;;;7.35;58.15
7376;BME280;3728;42.266;24.944;2023-02-18T06:37:23;100171.91;;;7.53;57.17
7376;BME280;3728;42.266;24.944;2023-02-18T06:39:50;100184.66;;;7.65;56.94
7376;BME280;3728;42.266;24.944;2023-02-18T06:42:18;100184.38;;;7.82;57.28
7376;BME280;3728;42.266;24.944;2023-02-18T06:44:45;100171.06;;;7.83;57.04
7376;BME280;3728;42.266;24.944;2023-02-18T06:47:13;100169.25;;;7.79;56.02
7376;BME280;3728;42.266;24.944;2023-02-18T06:49:40;100171.34;;;7.77;57.32
7376;BME280;3728;42.266;24.944;2023-02-18T06:52:08;100167.66;;;7.88;56.82
7376;BME280;3728;42.266;24.944;2023-02-18T06:54:36;100169.41;;;8.07;56.57
7376;BME280;3728;42.266;24.944;2023-02-18T06:57:03;100167.53;;;8.18;55.61
7376;BME280;3728;42.266;24.944;2023-02-18T06:59:31;100153.44;;;8.24;55.08
7376;BME280;3728;42.266;24.944;2023-02-18T07:01:58;100151.09;;;8.27;55.63
7376;BME280;3728;42.266;24.944;2023-02-18T07:04:26;100150.50;;;8.41;53.55
7376;BME280;3728;42.266;24.944;2023-02-18T07:06:53;100161.84;;;8.60;52.83
7376;BME280;3728;42.266;24.944;2023-02-18T07:09:21;100173.84;;;8.66;53.45
7376;BME280;3728;42.266;24.944;2023-02-18T07:11:49;100166.50;;;8.73;54.13
7376;BME280;3728;42.266;24.944;2023-02-18T07:14:16;100149.91;;;8.92;53.49
7376;BME280;3728;42.266;24.944;2023-02-18T07:16:44;100163.59;;;9.13;53.21
7376;BME280;3728;42.266;24.944;2023-02-18T07:19:12;100161.25;;;9.40;52.96
7376;BME280;3728;42.266;24.944;2023-02-18T07:21:40;100161.81;;;9.61;52.49
7376;BME280;3728;42.266;24.944;2023-02-18T07:24:09;100162.41;;;9.82;52.26
7376;BME280;3728;42.266;24.944;2023-02-18T07:26:36;100167.09;;;10.03;52.15
7376;BME280;3728;42.266;24.944;2023-02-18T07:29:04;100154.91;;;10.17;51.96
7376;BME280;3728;42.266;24.944;2023-02-18T07:31:35;100148.47;;;10.34;51.19
7376;BME280;3728;42.266;24.944;2023-02-18T07:34:04;100154.19;;;10.54;50.94
7376;BME280;3728;42.266;24.944;2023-02-18T07:36:32;100157.34;;;10.70;49.86
7376;BME280;3728;42.266;24.944;2023-02-18T07:39:00;100157.78;;;10.77;49.71
7376;BME280;3728;42.266;24.944;2023-02-18T07:41:28;100148.56;;;10.79;50.13
7376;BME280;3728;42.266;24.944;2023-02-18T07:43:55;100148.63;;;10.93;49.66
7376;BME280;3728;42.266;24.944;2023-02-18T07:46:23;100145.84;;;11.03;49.58
7376;BME280;3728;42.266;24.944;2023-02-18T07:48:52;100145.88;;;11.17;49.27
7376;BME280;3728;42.266;24.944;2023-02-18T07:51:20;100136.19;;;11.31;49.40
7376;BME280;3728;42.266;24.944;2023-02-18T07:53:50;100145.56;;;11.50;48.67
7376;BME280;3728;42.266;24.944;2023-02-18T07:56:18;100129.41;;;11.57;48.26
7376;BME280;3728;42.266;24.944;2023-02-18T07:58:45;100124.81;;;11.81;47.54
7376;BME280;3728;42.266;24.944;2023-02-18T08:01:14;100124.19;;;12.11;46.37
7376;BME280;3728;42.266;24.944;2023-02-18T08:03:42;100124.59;;;12.76;44.90
7376;BME280;3728;42.266;24.944;2023-02-18T08:06:34;100121.13;;;13.42;41.97
7376;BME280;3728;42.266;24.944;2023-02-18T08:09:09;100114.72;;;13.83;41.03
7376;BME280;3728;42.266;24.944;2023-02-18T08:11:37;100125.34;;;14.08;40.60
7376;BME280;3728;42.266;24.944;2023-02-18T08:14:05;100105.81;;;14.26;39.18
7376;BME280;3728;42.266;24.944;2023-02-18T08:16:32;100110.16;;;14.14;39.60
7376;BME280;3728;42.266;24.944;2023-02-18T08:19:01;100116.81;;;14.28;38.68
7376;BME280;3728;42.266;24.944;2023-02-18T08:21:31;100101.81;;;14.29;39.33
7376;BME280;3728;42.266;24.944;2023-02-18T08:23:59;100092.16;;;14.16;39.27
7376;BME280;3728;42.266;24.944;2023-02-18T08:26:28;100088.91;;;14.27;39.25
7376;BME280;3728;42.266;24.944;2023-02-18T08:28:56;100091.91;;;14.34;38.36
7376;BME280;3728;42.266;24.944;2023-02-18T08:31:26;100093.72;;;14.17;38.73
7376;BME280;3728;42.266;24.944;2023-02-18T08:33:58;100084.78;;;14.35;39.28
7376;BME280;3728;42.266;24.944;2023-02-18T08:36:27;100101.22;;;14.58;39.04
7376;BME280;3728;42.266;24.944;2023-02-18T08:38:57;100084.00;;;14.43;39.32
7376;BME280;3728;42.266;24.944;2023-02-18T08:41:24;100092.03;;;14.81;38.41
7376;BME280;3728;42.266;24.944;2023-02-18T08:43:52;100083.50;;;15.30;37.77
7376;BME280;3728;42.266;24.944;2023-02-18T08:46:21;100089.47;;;15.10;38.79
7376;BME280;3728;42.266;24.944;2023-02-18T08:49:02;100090.84;;;15.62;37.35
7376;BME280;3728;42.266;24.944;2023-02-18T08:51:32;100080.19;;;15.80;37.43
7376;BME280;3728;42.266;24.944;2023-02-18T08:54:00;100088.97;;;16.13;36.37
7376;BME280;3728;42.266;24.944;2023-02-18T08:56:27;100086.41;;;16.25;35.10
7376;BME280;3728;42.266;24.944;2023-02-18T08:58:55;100083.72;;;16.46;34.70
7376;BME280;3728;42.266;24.944;2023-02-18T09:01:25;100093.22;;;16.67;34.80
7376;BME280;3728;42.266;24.944;2023-02-18T09:03:53;100071.22;;;16.87;35.06
7376;BME280;3728;42.266;24.944;2023-02-18T09:06:22;100084.06;;;17.22;34.12
7376;BME280;3728;42.266;24.944;2023-02-18T09:08:51;100089.13;;;17.15;34.59
7376;BME280;3728;42.266;24.944;2023-02-18T09:11:19;100086.19;;;17.28;34.52
7376;BME280;3728;42.266;24.944;2023-02-18T09:13:47;100080.75;;;17.25;33.79
7376;BME280;3728;42.266;24.944;2023-02-18T09:16:17;100096.09;;;17.31;33.18
7376;BME280;3728;42.266;24.944;2023-02-18T09:18:46;100088.91;;;17.20;33.16
7376;BME280;3728;42.266;24.944;2023-02-18T09:21:15;100091.03;;;17.26;33.09
7376;BME280;3728;42.266;24.944;2023-02-18T09:23:44;100088.91;;;17.20;33.57
7376;BME280;3728;42.266;24.944;2023-02-18T09:26:15;100087.38;;;17.31;33.51
7376;BME280;3728;42.266;24.944;2023-02-18T09:28:48;100087.63;;;17.62;32.81
7376;BME280;3728;42.266;24.944;2023-02-18T09:31:19;100082.09;;;17.67;33.16
7376;BME280;3728;42.266;24.944;2023-02-18T09:33:51;100074.69;;;17.85;32.44
7376;BME280;3728;42.266;24.944;2023-02-18T09:36:25;100065.94;;;18.08;31.77
7376;BME280;3728;42.266;24.944;2023-02-18T09:38:53;100069.34;;;18.09;31.57
7376;BME280;3728;42.266;24.944;2023-02-18T09:41:52;100063.09;;;17.89;31.80
7376;BME280;3728;42.266;24.944;2023-02-18T09:46:59;100053.69;;;18.31;32.66
7376;BME280;3728;42.266;24.944;2023-02-18T09:49:39;100043.63;;;18.37;31.98
7376;BME280;3728;42.266;24.944;2023-02-18T09:52:13;100044.56;;;18.44;31.56
7376;BME280;3728;42.266;24.944;2023-02-18T09:54:47;100047.34;;;18.20;31.45
7376;BME280;3728;42.266;24.944;2023-02-18T09:57:23;100035.16;;;18.19;30.07
7376;BME280;3728;42.266;24.944;2023-02-18T10:00:05;100032.38;;;18.28;29.95
7376;BME280;3728;42.266;24.944;2023-02-18T10:03:03;100023.84;;;18.34;30.65
7376;BME280;3728;42.266;24.944;2023-02-18T10:05:33;100039.59;;;18.43;30.66
7376;BME280;3728;42.266;24.944;2023-02-18T10:08:18;100040.78;;;18.58;30.25
7376;BME280;3728;42.266;24.944;2023-02-18T10:10:51;100035.25;;;18.94;30.08
7376;BME280;3728;42.266;24.944;2023-02-18T10:13:23;100030.44;;;19.15;28.89
7376;BME280;3728;42.266;24.944;2023-02-18T10:15:54;100016.00;;;18.81;29.62
7376;BME280;3728;42.266;24.944;2023-02-18T10:18:31;100005.19;;;18.74;29.27
7376;BME280;3728;42.266;24.944;2023-02-18T10:23:37;100007.50;;;18.60;29.79
7376;BME280;3728;42.266;24.944;2023-02-18T10:26:13;100000.97;;;18.89;29.84
7376;BME280;3728;42.266;24.944;2023-02-18T10:28:43;100003.47;;;19.13;29.67
7376;BME280;3728;42.266;24.944;2023-02-18T10:31:19;100004.16;;;19.26;29.47
7376;BME280;3728;42.266;24.944;2023-02-18T10:36:54;99991.53;;;19.23;28.94
7376;BME280;3728;42.266;24.944;2023-02-18T10:51:33;99979.03;;;19.23;29.50
7376;BME280;3728;42.266;24.944;2023-02-18T10:54:02;99968.16;;;19.28;27.80
7376;BME280;3728;42.266;24.944;2023-02-18T10:56:39;99981.09;;;19.30;28.25
7376;BME280;3728;42.266;24.944;2023-02-18T10:59:24;99966.31;;;19.48;28.32
7376;BME280;3728;42.266;24.944;2023-02-18T11:02:02;99981.19;;;19.87;27.81
7376;BME280;3728;42.266;24.944;2023-02-18T11:04:44;99955.16;;;19.96;27.33
7376;BME280;3728;42.266;24.944;2023-02-18T11:07:19;99962.78;;;19.98;27.97
7376;BME280;3728;42.266;24.944;2023-02-18T11:10:09;99954.25;;;19.69;27.64
7376;BME280;3728;42.266;24.944;2023-02-18T11:12:48;99945.50;;;19.50;28.15
7376;BME280;3728;42.266;24.944;2023-02-18T11:15:27;99950.34;;;19.63;28.67
7376;BME280;3728;42.266;24.944;2023-02-18T11:18:17;99944.44;;;20.12;28.08
7376;BME280;3728;42.266;24.944;2023-02-18T11:20:57;99935.03;;;20.37;27.66
7376;BME280;3728;42.266;24.944;2023-02-18T11:23:30;99929.06;;;20.43;27.07
7376;BME280;3728;42.266;24.944;2023-02-18T11:26:06;99921.44;;;20.65;26.66
7376;BME280;3728;42.266;24.944;2023-02-18T11:28:46;99933.59;;;20.66;26.58
7376;BME280;3728;42.266;24.944;2023-02-18T11:31:26;99920.84;;;20.75;27.27
7376;BME280;3728;42.266;24.944;2023-02-18T11:34:18;99925.38;;;20.74;27.10
7376;BME280;3728;42.266;24.944;2023-02-18T11:36:52;99914.50;;;20.60;27.81
7376;BME280;3728;42.266;24.944;2023-02-18T11:39:23;99904.75;;;20.68;27.17
7376;BME280;3728;42.266;24.944;2023-02-18T11:42:03;99915.50;;;20.75;27.35
7376;BME280;3728;42.266;24.944;2023-02-18T11:44:35;99903.03;;;20.82;27.34
7376;BME280;3728;42.266;24.944;2023-02-18T11:47:20;99894.66;;;20.80;27.76
7376;BME280;3728;42.266;24.944;2023-02-18T11:50:10;99898.06;;;20.77;28.23
7376;BME280;3728;42.266;24.944;2023-02-18T11:52:48;99897.81;;;20.89;28.09
7376;BME280;3728;42.266;24.944;2023-02-18T11:56:03;99897.63;;;20.75;28.94
7376;BME280;3728;42.266;24.944;2023-02-18T11:58:43;99887.72;;;20.98;28.78
7376;BME280;3728;42.266;24.944;2023-02-18T12:04:11;99877.47;;;21.30;28.57
7376;BME280;3728;42.266;24.944;2023-02-18T12:09:37;99865.28;;;21.62;27.36
7376;BME280;3728;42.266;24.944;2023-02-18T12:12:43;99870.59;;;21.92;27.58
7376;BME280;3728;42.266;24.944;2023-02-18T12:15:21;99857.88;;;21.82;28.08
7376;BME280;3728;42.266;24.944;2023-02-18T12:18:33;99857.91;;;21.49;29.18
7376;BME280;3728;42.266;24.944;2023-02-18T12:24:15;99844.78;;;22.54;29.50
7376;BME280;3728;42.266;24.944;2023-02-18T12:34:14;99834.28;;;22.24;29.34
7376;BME280;3728;42.266;24.944;2023-02-18T12:37:19;99829.31;;;22.74;28.23
7376;BME280;3728;42.266;24.944;2023-02-18T12:40:36;99834.47;;;23.17;28.16
7376;BME280;3728;42.266;24.944;2023-02-18T12:43:40;99826.84;;;22.51;28.09
7376;BME280;3728;42.266;24.944;2023-02-18T13:01:40;99831.72;;;21.25;29.83
7376;BME280;3728;42.266;24.944;2023-02-18T13:04:35;99828.34;;;21.28;29.94
7376;BME280;3728;42.266;24.944;2023-02-18T13:13:32;99827.44;;;21.83;28.27
7376;BME280;3728;42.266;24.944;2023-02-18T13:16:12;99828.72;;;21.59;28.92
7376;BME280;3728;42.266;24.944;2023-02-18T13:19:13;99824.50;;;21.25;29.45
7376;BME280;3728;42.266;24.944;2023-02-18T13:22:05;99827.84;;;21.85;28.14
7376;BME280;3728;42.266;24.944;2023-02-18T13:24:38;99820.66;;;21.56;28.86
7376;BME280;3728;42.266;24.944;2023-02-18T13:30:31;99830.13;;;21.17;29.29
7376;BME280;3728;42.266;24.944;2023-02-18T13:33:35;99826.66;;;21.46;29.30
7376;BME280;3728;42.266;24.944;2023-02-18T13:39:13;99823.31;;;21.89;28.47
7376;BME280;3728;42.266;24.944;2023-02-18T13:41:47;99825.44;;;21.76;28.68
7376;BME280;3728;42.266;24.944;2023-02-18T13:46:55;99821.16;;;21.32;29.52
7376;BME280;3728;42.266;24.944;2023-02-18T13:49:32;99819.84;;;21.85;28.87
7376;BME280;3728;42.266;24.944;2023-02-18T13:52:02;99825.94;;;22.29;28.23
7376;BME280;3728;42.266;24.944;2023-02-18T13:54:56;99819.44;;;22.30;28.67
7376;BME280;3728;42.266;24.944;2023-02-18T13:57:26;99819.66;;;22.08;28.56
7376;BME280;3728;42.266;24.944;2023-02-18T13:59:58;99816.31;;;21.77;29.32
7376;BME280;3728;42.266;24.944;2023-02-18T14:02:34;99823.84;;;21.68;29.13
7376;BME280;3728;42.266;24.944;2023-02-18T14:05:23;99817.75;;;21.68;29.37
7376;BME280;3728;42.266;24.944;2023-02-18T14:08:11;99813.03;;;21.54;29.58
7376;BME280;3728;42.266;24.944;2023-02-18T14:10:41;99829.13;;;21.28;30.22
7376;BME280;3728;42.266;24.944;2023-02-18T14:14:32;99813.25;;;21.39;29.42
7376;BME280;3728;42.266;24.944;2023-02-18T14:19:53;99821.84;;;21.25;29.70
7376;BME280;3728;42.266;24.944;2023-02-18T14:22:42;99822.13;;;21.17;30.11
7376;BME280;3728;42.266;24.944;2023-02-18T14:25:34;99819.47;;;21.17;30.12
7376;BME280;3728;42.266;24.944;2023-02-18T14:31:22;99805.38;;;20.86;30.37
7376;BME280;3728;42.266;24.944;2023-02-18T14:34:33;99814.50;;;20.59;31.01
7376;BME280;3728;42.266;24.944;2023-02-18T14:49:39;99815.06;;;20.72;30.44
7376;BME280;3728;42.266;24.944;2023-02-18T14:52:30;99807.44;;;21.00;30.06
7376;BME280;3728;42.266;24.944;2023-02-18T14:55:18;99807.06;;;21.01;29.76
7376;BME280;3728;42.266;24.944;2023-02-18T15:00:56;99798.44;;;20.52;30.79
7376;BME280;3728;42.266;24.944;2023-02-18T15:03:33;99792.66;;;20.47;30.36
7376;BME280;3728;42.266;24.944;2023-02-18T15:06:02;99798.78;;;20.24;30.79
7376;BME280;3728;42.266;24.944;2023-02-18T15:08:37;99797.34;;;20.08;31.25
7376;BME280;3728;42.266;24.944;2023-02-18T15:11:09;99788.22;;;19.83;31.88
7376;BME280;3728;42.266;24.944;2023-02-18T15:13:41;99801.22;;;19.88;31.38
7376;BME280;3728;42.266;24.944;2023-02-18T15:16:19;99794.34;;;19.64;31.65
7376;BME280;3728;42.266;24.944;2023-02-18T15:19:22;99797.56;;;19.54;32.16
7376;BME280;3728;42.266;24.944;2023-02-18T15:21:56;99799.78;;;19.71;32.16
7376;BME280;3728;42.266;24.944;2023-02-18T15:24:29;99799.81;;;19.74;31.87
7376;BME280;3728;42.266;24.944;2023-02-18T15:27:17;99800.06;;;19.89;31.74
7376;BME280;3728;42.266;24.944;2023-02-18T15:29:51;99802.06;;;19.50;32.18
7376;BME280;3728;42.266;24.944;2023-02-18T15:32:28;99807.16;;;19.39;32.86
7376;BME280;3728;42.266;24.944;2023-02-18T15:35:02;99795.59;;;19.51;32.46
7376;BME280;3728;42.266;24.944;2023-02-18T15:37:44;99807.97;;;19.24;32.84
7376;BME280;3728;42.266;24.944;2023-02-18T15:40:15;99806.69;;;18.99;32.99
7376;BME280;3728;42.266;24.944;2023-02-18T15:42:49;99804.03;;;18.99;32.95
7376;BME280;3728;42.266;24.944;2023-02-18T15:45:21;99811.03;;;18.88;33.06
7376;BME280;3728;42.266;24.944;2023-02-18T15:47:57;99795.31;;;18.64;33.10
7376;BME280;3728;42.266;24.944;2023-02-18T15:50:32;99806.91;;;18.56;33.21
7376;BME280;3728;42.266;24.944;2023-02-18T15:53:13;99800.47;;;18.41;33.50